Terminal Aerodrome Forecast
Issued by NWS Binghamton, NY

Home | Current Version | Previous Version | Text Only | Print | Product List | Glossary On
Versions: 1 2 3 4 5 6 7 8 9 10 11 12 13 14 15 16 17 18 19 20 21 22 23
000
FTUS41 KBGM 221500 AAA
TAFBGM
TAF AMD
KBGM 221526Z 2215/2312 VRB03KT P6SM OVC012
      TEMPO 2215/2217 3SM BR OVC003
     FM221700 14003KT P6SM BKN035
      TEMPO 2218/2222 5SM SHRA BR OVC022
     FM230300 13005KT 3SM BR BKN015=

USA.gov is the U.S. government's official web portal to all federal, state and local government web resources and services.